sensor_id;sensor_type;location;lat;lon;timestamp;P1;durP1;ratioP1;P2;durP2;ratioP2
9240;SDS011;53485;49.326;9.738;2023-01-24T00:00:44;19.70;;;11.63;;
9240;SDS011;53485;49.326;9.738;2023-01-24T00:03:11;23.20;;;12.47;;
9240;SDS011;53485;49.326;9.738;2023-01-24T00:05:38;21.17;;;11.37;;
9240;SDS011;53485;49.326;9.738;2023-01-24T00:08:04;21.03;;;11.90;;
9240;SDS011;53485;49.326;9.738;2023-01-24T00:10:30;23.00;;;12.60;;
9240;SDS011;53485;49.326;9.738;2023-01-24T00:12:57;23.03;;;12.57;;
9240;SDS011;53485;49.326;9.738;2023-01-24T00:15:23;22.70;;;12.50;;
9240;SDS011;53485;49.326;9.738;2023-01-24T00:17:50;24.70;;;12.30;;
9240;SDS011;53485;49.326;9.738;2023-01-24T00:20:16;24.17;;;12.97;;
9240;SDS011;53485;49.326;9.738;2023-01-24T00:22:43;24.73;;;12.33;;
9240;SDS011;53485;49.326;9.738;2023-01-24T00:25:09;23.73;;;12.40;;
9240;SDS011;53485;49.326;9.738;2023-01-24T00:27:36;24.17;;;12.77;;
9240;SDS011;53485;49.326;9.738;2023-01-24T00:30:03;21.77;;;12.03;;
9240;SDS011;53485;49.326;9.738;2023-01-24T00:32:29;21.60;;;11.80;;
9240;SDS011;53485;49.326;9.738;2023-01-24T00:34:55;24.97;;;13.03;;
9240;SDS011;53485;49.326;9.738;2023-01-24T00:37:22;23.67;;;12.77;;
9240;SDS011;53485;49.326;9.738;2023-01-24T00:39:48;21.90;;;11.70;;
9240;SDS011;53485;49.326;9.738;2023-01-24T00:42:15;22.27;;;11.37;;
9240;SDS011;53485;49.326;9.738;2023-01-24T00:44:42;21.27;;;11.60;;
9240;SDS011;53485;49.326;9.738;2023-01-24T00:47:08;23.90;;;12.07;;
9240;SDS011;53485;49.326;9.738;2023-01-24T00:49:35;22.17;;;11.63;;
9240;SDS011;53485;49.326;9.738;2023-01-24T00:52:02;24.40;;;13.27;;
9240;SDS011;53485;49.326;9.738;2023-01-24T00:54:28;26.80;;;13.33;;
9240;SDS011;53485;49.326;9.738;2023-01-24T00:56:55;24.87;;;12.63;;
9240;SDS011;53485;49.326;9.738;2023-01-24T00:59:22;25.50;;;13.10;;
9240;SDS011;53485;49.326;9.738;2023-01-24T01:01:48;24.03;;;12.00;;
9240;SDS011;53485;49.326;9.738;2023-01-24T01:04:15;27.87;;;12.73;;
9240;SDS011;53485;49.326;9.738;2023-01-24T01:06:45;22.90;;;11.93;;
9240;SDS011;53485;49.326;9.738;2023-01-24T01:09:08;24.33;;;12.37;;
9240;SDS011;53485;49.326;9.738;2023-01-24T01:11:35;24.10;;;12.83;;
9240;SDS011;53485;49.326;9.738;2023-01-24T01:14:01;29.20;;;13.33;;
9240;SDS011;53485;49.326;9.738;2023-01-24T01:16:27;26.40;;;13.00;;
9240;SDS011;53485;49.326;9.738;2023-01-24T01:18:54;23.77;;;12.60;;
9240;SDS011;53485;49.326;9.738;2023-01-24T01:21:20;25.33;;;13.10;;
9240;SDS011;53485;49.326;9.738;2023-01-24T01:23:46;24.23;;;13.43;;
9240;SDS011;53485;49.326;9.738;2023-01-24T01:26:14;24.83;;;12.57;;
9240;SDS011;53485;49.326;9.738;2023-01-24T01:28:39;23.47;;;13.10;;
9240;SDS011;53485;49.326;9.738;2023-01-24T01:31:06;23.73;;;12.00;;
9240;SDS011;53485;49.326;9.738;2023-01-24T01:33:32;24.10;;;12.97;;
9240;SDS011;53485;49.326;9.738;2023-01-24T01:35:59;24.80;;;13.60;;
9240;SDS011;53485;49.326;9.738;2023-01-24T01:38:25;25.43;;;12.23;;
9240;SDS011;53485;49.326;9.738;2023-01-24T01:40:52;25.23;;;14.07;;
9240;SDS011;53485;49.326;9.738;2023-01-24T01:43:19;22.40;;;11.80;;
9240;SDS011;53485;49.326;9.738;2023-01-24T01:45:46;24.53;;;12.80;;
9240;SDS011;53485;49.326;9.738;2023-01-24T01:48:14;25.03;;;13.60;;
9240;SDS011;53485;49.326;9.738;2023-01-24T01:50:40;25.90;;;12.53;;
9240;SDS011;53485;49.326;9.738;2023-01-24T01:53:05;27.87;;;13.00;;
9240;SDS011;53485;49.326;9.738;2023-01-24T01:55:33;23.27;;;12.10;;
9240;SDS011;53485;49.326;9.738;2023-01-24T01:57:58;24.27;;;12.77;;
9240;SDS011;53485;49.326;9.738;2023-01-24T02:00:24;21.63;;;12.33;;
9240;SDS011;53485;49.326;9.738;2023-01-24T02:02:54;23.17;;;13.10;;
9240;SDS011;53485;49.326;9.738;2023-01-24T02:05:20;21.70;;;12.10;;
9240;SDS011;53485;49.326;9.738;2023-01-24T02:07:49;24.47;;;12.97;;
9240;SDS011;53485;49.326;9.738;2023-01-24T02:10:14;26.27;;;13.20;;
9240;SDS011;53485;49.326;9.738;2023-01-24T02:12:42;22.00;;;13.03;;
9240;SDS011;53485;49.326;9.738;2023-01-24T02:15:09;25.13;;;13.70;;
9240;SDS011;53485;49.326;9.738;2023-01-24T02:17:39;23.00;;;13.40;;
9240;SDS011;53485;49.326;9.738;2023-01-24T02:20:07;26.87;;;13.73;;
9240;SDS011;53485;49.326;9.738;2023-01-24T02:25:19;24.60;;;12.77;;
9240;SDS011;53485;49.326;9.738;2023-01-24T02:27:42;26.47;;;13.13;;
9240;SDS011;53485;49.326;9.738;2023-01-24T02:30:09;24.47;;;13.43;;
9240;SDS011;53485;49.326;9.738;2023-01-24T02:32:36;24.77;;;13.30;;
9240;SDS011;53485;49.326;9.738;2023-01-24T02:35:03;24.87;;;13.27;;
9240;SDS011;53485;49.326;9.738;2023-01-24T02:37:29;27.00;;;14.53;;
9240;SDS011;53485;49.326;9.738;2023-01-24T02:39:56;22.53;;;12.97;;
9240;SDS011;53485;49.326;9.738;2023-01-24T02:42:23;25.50;;;14.47;;
9240;SDS011;53485;49.326;9.738;2023-01-24T02:44:50;25.50;;;13.53;;
9240;SDS011;53485;49.326;9.738;2023-01-24T02:47:14;25.13;;;12.87;;
9240;SDS011;53485;49.326;9.738;2023-01-24T02:49:40;24.63;;;13.13;;
9240;SDS011;53485;49.326;9.738;2023-01-24T02:52:07;23.20;;;12.73;;
9240;SDS011;53485;49.326;9.738;2023-01-24T02:54:39;29.10;;;14.10;;
9240;SDS011;53485;49.326;9.738;2023-01-24T02:57:06;27.73;;;13.63;;
9240;SDS011;53485;49.326;9.738;2023-01-24T02:59:37;25.03;;;13.23;;
9240;SDS011;53485;49.326;9.738;2023-01-24T03:02:04;24.23;;;13.10;;
9240;SDS011;53485;49.326;9.738;2023-01-24T03:04:31;23.67;;;12.77;;
9240;SDS011;53485;49.326;9.738;2023-01-24T03:06:57;26.97;;;13.00;;
9240;SDS011;53485;49.326;9.738;2023-01-24T03:09:24;23.07;;;12.10;;
9240;SDS011;53485;49.326;9.738;2023-01-24T03:11:56;23.57;;;12.83;;
9240;SDS011;53485;49.326;9.738;2023-01-24T03:14:28;25.03;;;13.57;;
9240;SDS011;53485;49.326;9.738;2023-01-24T03:17:00;27.67;;;13.30;;
9240;SDS011;53485;49.326;9.738;2023-01-24T03:19:32;22.90;;;12.37;;
9240;SDS011;53485;49.326;9.738;2023-01-24T03:22:04;29.40;;;13.77;;
9240;SDS011;53485;49.326;9.738;2023-01-24T03:24:36;25.93;;;13.90;;
9240;SDS011;53485;49.326;9.738;2023-01-24T03:27:08;25.60;;;13.63;;
9240;SDS011;53485;49.326;9.738;2023-01-24T03:29:40;24.00;;;13.37;;
9240;SDS011;53485;49.326;9.738;2023-01-24T03:32:12;25.83;;;14.07;;
9240;SDS011;53485;49.326;9.738;2023-01-24T03:34:44;29.43;;;13.93;;
9240;SDS011;53485;49.326;9.738;2023-01-24T03:37:12;21.93;;;13.23;;
9240;SDS011;53485;49.326;9.738;2023-01-24T03:39:38;27.13;;;13.03;;
9240;SDS011;53485;49.326;9.738;2023-01-24T03:42:10;27.97;;;14.57;;
9240;SDS011;53485;49.326;9.738;2023-01-24T03:44:36;26.07;;;13.53;;
9240;SDS011;53485;49.326;9.738;2023-01-24T03:47:02;22.93;;;12.53;;
9240;SDS011;53485;49.326;9.738;2023-01-24T03:49:29;24.27;;;12.77;;
9240;SDS011;53485;49.326;9.738;2023-01-24T03:52:01;23.10;;;12.57;;
9240;SDS011;53485;49.326;9.738;2023-01-24T03:54:33;23.73;;;13.07;;
9240;SDS011;53485;49.326;9.738;2023-01-24T03:57:00;24.47;;;12.97;;
9240;SDS011;53485;49.326;9.738;2023-01-24T03:59:26;28.90;;;14.73;;
9240;SDS011;53485;49.326;9.738;2023-01-24T04:01:53;27.20;;;13.70;;
9240;SDS011;53485;49.326;9.738;2023-01-24T04:04:20;23.70;;;13.57;;
9240;SDS011;53485;49.326;9.738;2023-01-24T04:06:46;25.57;;;14.53;;
9240;SDS011;53485;49.326;9.738;2023-01-24T04:09:13;24.97;;;13.63;;
9240;SDS011;53485;49.326;9.738;2023-01-24T04:11:39;25.30;;;13.87;;
9240;SDS011;53485;49.326;9.738;2023-01-24T04:14:06;25.30;;;12.83;;
9240;SDS011;53485;49.326;9.738;2023-01-24T04:16:33;25.23;;;12.77;;
9240;SDS011;53485;49.326;9.738;2023-01-24T04:19:00;26.77;;;13.33;;
9240;SDS011;53485;49.326;9.738;2023-01-24T04:21:26;25.33;;;13.50;;
9240;SDS011;53485;49.326;9.738;2023-01-24T04:23:53;22.30;;;12.07;;
9240;SDS011;53485;49.326;9.738;2023-01-24T04:26:19;25.77;;;14.27;;
9240;SDS011;53485;49.326;9.738;2023-01-24T04:28:46;27.53;;;12.77;;
9240;SDS011;53485;49.326;9.738;2023-01-24T04:31:13;22.73;;;12.47;;
9240;SDS011;53485;49.326;9.738;2023-01-24T04:33:39;29.20;;;14.33;;
9240;SDS011;53485;49.326;9.738;2023-01-24T04:36:06;23.43;;;12.40;;
9240;SDS011;53485;49.326;9.738;2023-01-24T04:38:33;25.23;;;14.27;;
9240;SDS011;53485;49.326;9.738;2023-01-24T04:41:00;22.63;;;11.97;;
9240;SDS011;53485;49.326;9.738;2023-01-24T04:43:26;27.17;;;13.00;;
9240;SDS011;53485;49.326;9.738;2023-01-24T04:45:54;28.43;;;13.83;;
9240;SDS011;53485;49.326;9.738;2023-01-24T04:48:20;28.63;;;13.57;;
9240;SDS011;53485;49.326;9.738;2023-01-24T04:50:47;27.93;;;13.47;;
9240;SDS011;53485;49.326;9.738;2023-01-24T04:53:13;26.97;;;14.67;;
9240;SDS011;53485;49.326;9.738;2023-01-24T04:55:40;28.20;;;14.47;;
9240;SDS011;53485;49.326;9.738;2023-01-24T04:58:07;24.77;;;14.17;;
9240;SDS011;53485;49.326;9.738;2023-01-24T05:00:33;28.40;;;14.37;;
9240;SDS011;53485;49.326;9.738;2023-01-24T05:03:00;25.10;;;12.97;;
9240;SDS011;53485;49.326;9.738;2023-01-24T05:05:27;29.97;;;14.47;;
9240;SDS011;53485;49.326;9.738;2023-01-24T05:07:53;28.67;;;14.83;;
9240;SDS011;53485;49.326;9.738;2023-01-24T05:10:20;28.73;;;15.17;;
9240;SDS011;53485;49.326;9.738;2023-01-24T05:12:46;28.63;;;15.50;;
9240;SDS011;53485;49.326;9.738;2023-01-24T05:15:13;27.47;;;14.33;;
9240;SDS011;53485;49.326;9.738;2023-01-24T05:17:42;25.37;;;13.37;;
9240;SDS011;53485;49.326;9.738;2023-01-24T05:20:06;28.20;;;14.10;;
9240;SDS011;53485;49.326;9.738;2023-01-24T05:22:33;28.77;;;14.43;;
9240;SDS011;53485;49.326;9.738;2023-01-24T05:24:59;30.03;;;14.83;;
9240;SDS011;53485;49.326;9.738;2023-01-24T05:27:26;28.80;;;14.90;;
9240;SDS011;53485;49.326;9.738;2023-01-24T05:29:53;29.57;;;14.03;;
9240;SDS011;53485;49.326;9.738;2023-01-24T05:32:19;28.73;;;15.20;;
9240;SDS011;53485;49.326;9.738;2023-01-24T05:34:46;28.03;;;14.80;;
9240;SDS011;53485;49.326;9.738;2023-01-24T05:37:13;25.63;;;14.20;;
9240;SDS011;53485;49.326;9.738;2023-01-24T05:39:39;29.50;;;15.23;;
9240;SDS011;53485;49.326;9.738;2023-01-24T05:42:06;28.40;;;14.60;;
9240;SDS011;53485;49.326;9.738;2023-01-24T05:44:32;28.77;;;14.33;;
9240;SDS011;53485;49.326;9.738;2023-01-24T05:46:59;28.90;;;14.87;;
9240;SDS011;53485;49.326;9.738;2023-01-24T05:49:26;27.53;;;14.00;;
9240;SDS011;53485;49.326;9.738;2023-01-24T05:51:52;31.37;;;14.70;;
9240;SDS011;53485;49.326;9.738;2023-01-24T05:54:19;28.67;;;14.53;;
9240;SDS011;53485;49.326;9.738;2023-01-24T05:56:46;30.23;;;14.63;;
9240;SDS011;53485;49.326;9.738;2023-01-24T05:59:12;29.87;;;14.20;;
9240;SDS011;53485;49.326;9.738;2023-01-24T06:01:39;28.73;;;15.00;;
9240;SDS011;53485;49.326;9.738;2023-01-24T06:04:06;26.23;;;14.13;;
9240;SDS011;53485;49.326;9.738;2023-01-24T06:06:32;27.07;;;13.87;;
9240;SDS011;53485;49.326;9.738;2023-01-24T06:08:59;23.63;;;13.43;;
9240;SDS011;53485;49.326;9.738;2023-01-24T06:11:26;28.27;;;14.27;;
9240;SDS011;53485;49.326;9.738;2023-01-24T06:13:52;34.80;;;15.90;;
9240;SDS011;53485;49.326;9.738;2023-01-24T06:16:19;30.93;;;15.00;;
9240;SDS011;53485;49.326;9.738;2023-01-24T06:18:44;26.87;;;14.67;;
9240;SDS011;53485;49.326;9.738;2023-01-24T06:21:16;29.30;;;14.73;;
9240;SDS011;53485;49.326;9.738;2023-01-24T06:23:40;28.00;;;14.73;;
9240;SDS011;53485;49.326;9.738;2023-01-24T06:26:08;26.40;;;14.27;;
9240;SDS011;53485;49.326;9.738;2023-01-24T06:28:34;25.70;;;13.87;;
9240;SDS011;53485;49.326;9.738;2023-01-24T06:31:04;27.07;;;14.60;;
9240;SDS011;53485;49.326;9.738;2023-01-24T06:33:33;28.07;;;14.77;;
9240;SDS011;53485;49.326;9.738;2023-01-24T06:36:06;33.77;;;17.37;;
9240;SDS011;53485;49.326;9.738;2023-01-24T06:38:28;31.63;;;16.40;;
9240;SDS011;53485;49.326;9.738;2023-01-24T06:40:55;27.83;;;14.43;;
9240;SDS011;53485;49.326;9.738;2023-01-24T06:43:21;27.10;;;14.23;;
9240;SDS011;53485;49.326;9.738;2023-01-24T06:45:48;27.57;;;13.67;;
9240;SDS011;53485;49.326;9.738;2023-01-24T06:48:14;26.60;;;13.33;;
9240;SDS011;53485;49.326;9.738;2023-01-24T06:50:41;26.47;;;14.43;;
9240;SDS011;53485;49.326;9.738;2023-01-24T06:53:07;23.50;;;13.03;;
9240;SDS011;53485;49.326;9.738;2023-01-24T06:55:34;22.80;;;12.47;;
9240;SDS011;53485;49.326;9.738;2023-01-24T06:58:01;25.60;;;13.63;;
9240;SDS011;53485;49.326;9.738;2023-01-24T07:00:27;23.97;;;13.17;;
9240;SDS011;53485;49.326;9.738;2023-01-24T07:02:57;25.03;;;13.47;;
9240;SDS011;53485;49.326;9.738;2023-01-24T07:05:23;25.23;;;13.00;;
9240;SDS011;53485;49.326;9.738;2023-01-24T07:07:49;25.97;;;12.90;;
9240;SDS011;53485;49.326;9.738;2023-01-24T07:10:16;21.57;;;12.27;;
9240;SDS011;53485;49.326;9.738;2023-01-24T07:12:43;26.10;;;12.40;;
9240;SDS011;53485;49.326;9.738;2023-01-24T07:15:09;22.83;;;12.03;;
9240;SDS011;53485;49.326;9.738;2023-01-24T07:17:36;23.97;;;11.80;;
9240;SDS011;53485;49.326;9.738;2023-01-24T07:20:03;21.50;;;12.03;;
9240;SDS011;53485;49.326;9.738;2023-01-24T07:22:30;22.53;;;12.40;;
9240;SDS011;53485;49.326;9.738;2023-01-24T07:24:57;23.77;;;13.07;;
9240;SDS011;53485;49.326;9.738;2023-01-24T07:27:23;24.00;;;12.40;;
9240;SDS011;53485;49.326;9.738;2023-01-24T07:29:50;22.43;;;11.57;;
9240;SDS011;53485;49.326;9.738;2023-01-24T07:32:17;25.30;;;12.80;;
9240;SDS011;53485;49.326;9.738;2023-01-24T07:34:43;25.60;;;13.10;;
9240;SDS011;53485;49.326;9.738;2023-01-24T07:37:10;23.10;;;12.03;;
9240;SDS011;53485;49.326;9.738;2023-01-24T07:39:37;22.97;;;11.63;;
9240;SDS011;53485;49.326;9.738;2023-01-24T07:42:03;20.70;;;11.90;;
9240;SDS011;53485;49.326;9.738;2023-01-24T07:44:30;21.97;;;12.67;;
9240;SDS011;53485;49.326;9.738;2023-01-24T07:46:57;20.27;;;12.50;;
9240;SDS011;53485;49.326;9.738;2023-01-24T07:49:23;21.50;;;11.73;;
9240;SDS011;53485;49.326;9.738;2023-01-24T07:51:50;24.93;;;12.73;;
9240;SDS011;53485;49.326;9.738;2023-01-24T07:54:16;20.13;;;11.67;;
9240;SDS011;53485;49.326;9.738;2023-01-24T07:56:43;24.23;;;12.40;;
9240;SDS011;53485;49.326;9.738;2023-01-24T07:59:09;25.10;;;13.70;;
9240;SDS011;53485;49.326;9.738;2023-01-24T08:01:36;20.97;;;11.87;;
9240;SDS011;53485;49.326;9.738;2023-01-24T08:04:02;22.17;;;12.47;;
9240;SDS011;53485;49.326;9.738;2023-01-24T08:06:29;24.17;;;12.83;;
9240;SDS011;53485;49.326;9.738;2023-01-24T08:08:56;23.10;;;12.83;;
9240;SDS011;53485;49.326;9.738;2023-01-24T08:11:22;26.00;;;14.07;;
9240;SDS011;53485;49.326;9.738;2023-01-24T08:13:49;32.13;;;15.57;;
9240;SDS011;53485;49.326;9.738;2023-01-24T08:16:16;24.87;;;12.87;;
9240;SDS011;53485;49.326;9.738;2023-01-24T08:18:43;25.90;;;15.27;;
9240;SDS011;53485;49.326;9.738;2023-01-24T08:21:09;22.77;;;12.50;;
9240;SDS011;53485;49.326;9.738;2023-01-24T08:23:36;20.03;;;12.00;;
9240;SDS011;53485;49.326;9.738;2023-01-24T08:26:03;24.00;;;12.17;;
9240;SDS011;53485;49.326;9.738;2023-01-24T08:28:29;24.03;;;12.60;;
9240;SDS011;53485;49.326;9.738;2023-01-24T08:30:56;22.60;;;12.83;;
9240;SDS011;53485;49.326;9.738;2023-01-24T08:33:21;21.73;;;12.13;;
9240;SDS011;53485;49.326;9.738;2023-01-24T08:35:48;21.50;;;11.47;;
9240;SDS011;53485;49.326;9.738;2023-01-24T08:38:14;20.83;;;12.13;;
9240;SDS011;53485;49.326;9.738;2023-01-24T08:40:41;21.67;;;11.17;;
9240;SDS011;53485;49.326;9.738;2023-01-24T08:43:07;20.20;;;11.50;;
9240;SDS011;53485;49.326;9.738;2023-01-24T08:45:33;24.20;;;10.97;;
9240;SDS011;53485;49.326;9.738;2023-01-24T08:47:59;21.77;;;11.50;;
9240;SDS011;53485;49.326;9.738;2023-01-24T08:50:26;18.27;;;10.73;;
9240;SDS011;53485;49.326;9.738;2023-01-24T08:52:54;21.00;;;10.93;;
9240;SDS011;53485;49.326;9.738;2023-01-24T08:55:20;18.20;;;10.60;;
9240;SDS011;53485;49.326;9.738;2023-01-24T08:57:46;18.30;;;10.03;;
9240;SDS011;53485;49.326;9.738;2023-01-24T09:00:13;17.97;;;9.87;;
9240;SDS011;53485;49.326;9.738;2023-01-24T09:02:40;18.20;;;10.37;;
9240;SDS011;53485;49.326;9.738;2023-01-24T09:05:07;16.57;;;9.87;;
9240;SDS011;53485;49.326;9.738;2023-01-24T09:07:33;19.33;;;10.07;;
9240;SDS011;53485;49.326;9.738;2023-01-24T09:09:59;19.33;;;10.97;;
9240;SDS011;53485;49.326;9.738;2023-01-24T09:12:26;15.10;;;9.43;;
9240;SDS011;53485;49.326;9.738;2023-01-24T09:14:52;14.73;;;8.87;;
9240;SDS011;53485;49.326;9.738;2023-01-24T09:17:19;16.53;;;9.33;;
9240;SDS011;53485;49.326;9.738;2023-01-24T09:19:46;16.70;;;9.30;;
9240;SDS011;53485;49.326;9.738;2023-01-24T09:22:12;16.17;;;9.60;;
9240;SDS011;53485;49.326;9.738;2023-01-24T09:24:39;15.53;;;9.73;;
9240;SDS011;53485;49.326;9.738;2023-01-24T09:27:05;15.07;;;8.80;;
9240;SDS011;53485;49.326;9.738;2023-01-24T09:29:32;17.17;;;9.17;;
9240;SDS011;53485;49.326;9.738;2023-01-24T09:31:59;13.87;;;8.70;;
9240;SDS011;53485;49.326;9.738;2023-01-24T09:34:25;14.77;;;8.77;;
9240;SDS011;53485;49.326;9.738;2023-01-24T09:36:52;15.90;;;8.83;;
9240;SDS011;53485;49.326;9.738;2023-01-24T09:39:19;16.87;;;9.57;;
9240;SDS011;53485;49.326;9.738;2023-01-24T09:41:49;16.70;;;9.27;;
9240;SDS011;53485;49.326;9.738;2023-01-24T09:44:16;14.17;;;8.80;;
9240;SDS011;53485;49.326;9.738;2023-01-24T09:46:41;13.07;;;7.60;;
9240;SDS011;53485;49.326;9.738;2023-01-24T09:49:12;12.47;;;7.33;;
9240;SDS011;53485;49.326;9.738;2023-01-24T09:51:38;11.57;;;7.30;;
9240;SDS011;53485;49.326;9.738;2023-01-24T09:54:03;14.10;;;8.23;;
9240;SDS011;53485;49.326;9.738;2023-01-24T09:56:34;14.03;;;8.07;;
9240;SDS011;53485;49.326;9.738;2023-01-24T09:59:02;13.67;;;7.93;;
9240;SDS011;53485;49.326;9.738;2023-01-24T10:01:26;14.00;;;8.43;;
9240;SDS011;53485;49.326;9.738;2023-01-24T10:03:52;13.47;;;8.10;;
9240;SDS011;53485;49.326;9.738;2023-01-24T10:06:22;12.70;;;7.67;;
9240;SDS011;53485;49.326;9.738;2023-01-24T10:08:50;13.90;;;7.67;;
9240;SDS011;53485;49.326;9.738;2023-01-24T10:14:33;12.53;;;7.77;;
9240;SDS011;53485;49.326;9.738;2023-01-24T10:19:24;13.03;;;7.83;;
9240;SDS011;53485;49.326;9.738;2023-01-24T10:24:23;14.43;;;8.90;;
9240;SDS011;53485;49.326;9.738;2023-01-24T10:26:48;13.37;;;8.90;;
9240;SDS011;53485;49.326;9.738;2023-01-24T10:29:20;13.00;;;8.20;;
9240;SDS011;53485;49.326;9.738;2023-01-24T10:32:00;13.70;;;8.40;;
9240;SDS011;53485;49.326;9.738;2023-01-24T10:34:30;15.27;;;8.73;;
9240;SDS011;53485;49.326;9.738;2023-01-24T10:36:57;13.67;;;8.63;;
9240;SDS011;53485;49.326;9.738;2023-01-24T10:39:21;13.10;;;7.73;;
9240;SDS011;53485;49.326;9.738;2023-01-24T10:41:48;13.00;;;8.30;;
9240;SDS011;53485;49.326;9.738;2023-01-24T10:44:15;13.70;;;8.27;;
9240;SDS011;53485;49.326;9.738;2023-01-24T10:46:44;13.50;;;8.70;;
9240;SDS011;53485;49.326;9.738;2023-01-24T10:49:09;12.83;;;8.57;;
9240;SDS011;53485;49.326;9.738;2023-01-24T10:51:34;12.37;;;8.63;;
9240;SDS011;53485;49.326;9.738;2023-01-24T10:54:01;14.60;;;8.97;;
9240;SDS011;53485;49.326;9.738;2023-01-24T10:56:27;15.83;;;9.70;;
9240;SDS011;53485;49.326;9.738;2023-01-24T10:58:57;15.70;;;9.40;;
9240;SDS011;53485;49.326;9.738;2023-01-24T11:01:25;17.70;;;11.23;;
9240;SDS011;53485;49.326;9.738;2023-01-24T11:03:50;17.70;;;10.93;;
9240;SDS011;53485;49.326;9.738;2023-01-24T11:08:48;13.80;;;8.63;;
9240;SDS011;53485;49.326;9.738;2023-01-24T11:11:18;12.90;;;8.47;;
9240;SDS011;53485;49.326;9.738;2023-01-24T11:13:43;14.73;;;8.67;;
9240;SDS011;53485;49.326;9.738;2023-01-24T11:19:00;14.63;;;9.13;;
9240;SDS011;53485;49.326;9.738;2023-01-24T11:21:25;15.33;;;9.10;;
9240;SDS011;53485;49.326;9.738;2023-01-24T11:26:25;14.87;;;9.10;;
9240;SDS011;53485;49.326;9.738;2023-01-24T11:28:56;17.40;;;8.87;;
9240;SDS011;53485;49.326;9.738;2023-01-24T11:31:26;18.33;;;10.20;;
9240;SDS011;53485;49.326;9.738;2023-01-24T11:33:54;18.33;;;9.90;;
9240;SDS011;53485;49.326;9.738;2023-01-24T11:36:24;16.80;;;9.30;;
9240;SDS011;53485;49.326;9.738;2023-01-24T11:38:47;17.17;;;9.97;;
9240;SDS011;53485;49.326;9.738;2023-01-24T11:41:15;16.63;;;9.80;;
9240;SDS011;53485;49.326;9.738;2023-01-24T11:43:48;18.87;;;9.67;;
9240;SDS011;53485;49.326;9.738;2023-01-24T11:51:30;17.13;;;10.40;;
9240;SDS011;53485;49.326;9.738;2023-01-24T11:54:03;13.47;;;8.77;;
9240;SDS011;53485;49.326;9.738;2023-01-24T11:56:35;17.67;;;10.23;;
9240;SDS011;53485;49.326;9.738;2023-01-24T12:04:07;22.13;;;11.20;;
9240;SDS011;53485;49.326;9.738;2023-01-24T12:06:37;19.83;;;11.57;;
9240;SDS011;53485;49.326;9.738;2023-01-24T12:11:47;20.30;;;10.60;;
9240;SDS011;53485;49.326;9.738;2023-01-24T12:14:30;19.60;;;10.43;;
9240;SDS011;53485;49.326;9.738;2023-01-24T12:17:02;20.37;;;10.80;;
9240;SDS011;53485;49.326;9.738;2023-01-24T12:20:06;20.30;;;11.23;;
9240;SDS011;53485;49.326;9.738;2023-01-24T12:22:13;18.40;;;10.03;;
9240;SDS011;53485;49.326;9.738;2023-01-24T12:24:38;20.57;;;11.00;;
9240;SDS011;53485;49.326;9.738;2023-01-24T12:27:06;20.97;;;11.57;;
9240;SDS011;53485;49.326;9.738;2023-01-24T12:29:31;22.00;;;11.83;;
9240;SDS011;53485;49.326;9.738;2023-01-24T12:32:02;19.83;;;11.30;;
9240;SDS011;53485;49.326;9.738;2023-01-24T12:34:32;20.80;;;11.40;;
9240;SDS011;53485;49.326;9.738;2023-01-24T12:36:58;22.37;;;11.10;;
9240;SDS011;53485;49.326;9.738;2023-01-24T12:39:23;25.50;;;12.30;;
9240;SDS011;53485;49.326;9.738;2023-01-24T12:41:57;23.97;;;11.03;;
9240;SDS011;53485;49.326;9.738;2023-01-24T12:44:28;22.73;;;12.10;;
9240;SDS011;53485;49.326;9.738;2023-01-24T12:46:58;20.33;;;11.37;;
9240;SDS011;53485;49.326;9.738;2023-01-24T12:49:24;22.13;;;11.17;;
9240;SDS011;53485;49.326;9.738;2023-01-24T12:51:49;22.60;;;11.93;;
9240;SDS011;53485;49.326;9.738;2023-01-24T12:54:15;23.30;;;11.97;;
9240;SDS011;53485;49.326;9.738;2023-01-24T12:56:44;25.60;;;12.70;;
9240;SDS011;53485;49.326;9.738;2023-01-24T12:59:07;24.90;;;13.27;;
9240;SDS011;53485;49.326;9.738;2023-01-24T13:01:37;25.77;;;12.93;;
9240;SDS011;53485;49.326;9.738;2023-01-24T13:04:10;26.87;;;13.13;;
9240;SDS011;53485;49.326;9.738;2023-01-24T13:09:09;22.67;;;11.57;;
9240;SDS011;53485;49.326;9.738;2023-01-24T13:11:34;22.73;;;12.73;;
9240;SDS011;53485;49.326;9.738;2023-01-24T13:14:01;27.93;;;13.73;;
9240;SDS011;53485;49.326;9.738;2023-01-24T13:16:34;24.23;;;13.20;;
9240;SDS011;53485;49.326;9.738;2023-01-24T13:19:01;21.03;;;12.17;;
9240;SDS011;53485;49.326;9.738;2023-01-24T13:21:33;21.53;;;12.60;;
9240;SDS011;53485;49.326;9.738;2023-01-24T13:24:02;23.37;;;12.33;;
9240;SDS011;53485;49.326;9.738;2023-01-24T13:34:13;24.27;;;11.97;;
9240;SDS011;53485;49.326;9.738;2023-01-24T13:36:37;24.40;;;12.50;;
9240;SDS011;53485;49.326;9.738;2023-01-24T13:39:03;20.77;;;12.20;;
9240;SDS011;53485;49.326;9.738;2023-01-24T13:41:34;24.70;;;14.17;;
9240;SDS011;53485;49.326;9.738;2023-01-24T13:44:02;24.67;;;12.80;;
9240;SDS011;53485;49.326;9.738;2023-01-24T13:48:59;23.50;;;13.73;;
9240;SDS011;53485;49.326;9.738;2023-01-24T13:51:30;21.70;;;12.40;;
9240;SDS011;53485;49.326;9.738;2023-01-24T13:53:59;24.07;;;11.30;;
9240;SDS011;53485;49.326;9.738;2023-01-24T13:56:24;20.70;;;11.40;;
9240;SDS011;53485;49.326;9.738;2023-01-24T13:58:51;23.80;;;12.07;;
9240;SDS011;53485;49.326;9.738;2023-01-24T14:01:17;25.23;;;12.67;;
9240;SDS011;53485;49.326;9.738;2023-01-24T14:06:15;25.13;;;13.10;;
9240;SDS011;53485;49.326;9.738;2023-01-24T14:08:44;22.77;;;12.77;;
9240;SDS011;53485;49.326;9.738;2023-01-24T14:11:19;23.93;;;13.03;;
9240;SDS011;53485;49.326;9.738;2023-01-24T14:13:55;27.23;;;14.57;;
9240;SDS011;53485;49.326;9.738;2023-01-24T14:16:55;25.87;;;13.43;;
9240;SDS011;53485;49.326;9.738;2023-01-24T14:21:48;27.27;;;13.43;;
9240;SDS011;53485;49.326;9.738;2023-01-24T14:25:25;23.53;;;12.03;;
9240;SDS011;53485;49.326;9.738;2023-01-24T14:27:00;28.63;;;14.33;;
9240;SDS011;53485;49.326;9.738;2023-01-24T14:29:41;23.57;;;13.23;;
9240;SDS011;53485;49.326;9.738;2023-01-24T14:34:40;26.37;;;13.30;;
9240;SDS011;53485;49.326;9.738;2023-01-24T14:37:09;22.30;;;12.47;;
9240;SDS011;53485;49.326;9.738;2023-01-24T14:39:33;22.50;;;12.17;;
9240;SDS011;53485;49.326;9.738;2023-01-24T14:42:01;24.97;;;13.50;;
9240;SDS011;53485;49.326;9.738;2023-01-24T14:44:27;24.53;;;12.90;;
9240;SDS011;53485;49.326;9.738;2023-01-24T14:46:57;25.17;;;13.43;;
9240;SDS011;53485;49.326;9.738;2023-01-24T14:49:27;26.50;;;12.93;;
9240;SDS011;53485;49.326;9.738;2023-01-24T14:51:51;24.50;;;12.50;;
9240;SDS011;53485;49.326;9.738;2023-01-24T14:54:19;24.80;;;13.37;;
9240;SDS011;53485;49.326;9.738;2023-01-24T14:56:44;25.77;;;13.30;;
9240;SDS011;53485;49.326;9.738;2023-01-24T14:59:11;28.07;;;13.50;;
9240;SDS011;53485;49.326;9.738;2023-01-24T15:01:37;27.13;;;13.37;;
9240;SDS011;53485;49.326;9.738;2023-01-24T15:04:04;26.20;;;12.57;;
9240;SDS011;53485;49.326;9.738;2023-01-24T15:06:31;25.70;;;12.97;;
9240;SDS011;53485;49.326;9.738;2023-01-24T15:08:58;26.37;;;13.40;;
9240;SDS011;53485;49.326;9.738;2023-01-24T15:11:25;28.10;;;13.10;;
9240;SDS011;53485;49.326;9.738;2023-01-24T15:13:51;21.97;;;12.10;;
9240;SDS011;53485;49.326;9.738;2023-01-24T15:16:17;26.57;;;13.40;;
9240;SDS011;53485;49.326;9.738;2023-01-24T15:18:45;26.43;;;12.80;;
9240;SDS011;53485;49.326;9.738;2023-01-24T15:21:15;29.67;;;13.60;;
9240;SDS011;53485;49.326;9.738;2023-01-24T15:23:39;29.10;;;13.13;;
9240;SDS011;53485;49.326;9.738;2023-01-24T15:28:37;27.27;;;14.57;;
9240;SDS011;53485;49.326;9.738;2023-01-24T15:31:04;26.30;;;13.83;;